• Join FlightAware (Why Join?)
  • Login
  • US Flag 
12:45PM EDT


 

Airport Tracker/Info


-or-


 

Live Flight TrackerFlight Track Log ✈ N211HK ✈ 24-Dec-2013 ✈ KLZU - KAPF

Flight Track Log - Related Links

Times and Time Zones

All times are in EST time to prevent confusion due to time zone crossing. See the N211HK flight status page for this flight to view local times or setup timezone preferences in your user account.

Time Position Orientation Groundspeed Altitude Reporting Facility
EST Latitude Longitude Course Direction KTS MPH feet Rate Location/Type
01:35PM 31.0886 -82.5553 180° South 160 184 5,400  Level Jacksonville Center
01:36PM 31.0511 -82.5556 180° South 154 177 6,200 540 Climbing Jacksonville Center
01:37PM 31.0072 -82.5556 180° South 143 165 6,500 120 Climbing Jacksonville Center
01:38PM 30.9675 -82.5583 183° South 143 165 6,500  Level Jacksonville Center
01:39PM 30.9239 -82.5583 180° South 153 176 6,500  Level Jacksonville Center
01:40PM 30.8778 -82.5586 180° South 164 189 6,500  Level Jacksonville Center
01:41PM 30.8319 -82.5564 178° South 164 189 6,500  Level Jacksonville Center
01:42PM 30.7881 -82.5564 180° South 164 189 6,500 -60 Level Jacksonville Center
01:43PM 30.7422 -82.5567 180° South 164 189 6,400 -60 Descending Jacksonville Center
01:44PM 30.6961 -82.5519 175° South 159 183 6,400  Level Jacksonville Center
01:45PM 30.6522 -82.5497 178° South 159 183 6,500  Climbing Jacksonville Center
01:46PM 30.6064 -82.5522 183° South 159 183 6,500  Level Jacksonville Center
01:47PM 30.5625 -82.5525 180° South 159 183 6,500 -60 Level Jacksonville Center
01:48PM 30.5167 -82.5525 180° South 159 183 6,400 -120 Descending Jacksonville Center
01:49PM 30.4664 -82.5431 171° South 159 183 6,300 -300 Descending Jacksonville Center
01:50PM 30.4206 -82.5314 168° South 165 190 5,900 -420 Descending Jacksonville Center
01:51PM 30.3683 -82.5267 176° South 171 197 5,500 -240 Descending Jacksonville Center
01:52PM 30.3222 -82.5194 172° South 179 206 5,500  Level Jacksonville Center
01:53PM 30.2764 -82.5100 170° South 179 206 5,500  Level Jacksonville Center
01:54PM 30.2306 -82.4983 168° South 179 206 5,600  Climbing Jacksonville Center
01:55PM 30.1844 -82.4914 173° South 179 206 5,500 -60 Descending Jacksonville Center
01:56PM 30.1386 -82.4794 167° South 179 206 5,500  Level Jacksonville Center
01:57PM 30.0947 -82.4700 169° South 174 200 5,500  Level Jacksonville Center
01:58PM 30.0486 -82.4583 168° South 174 200 5,500  Level Jacksonville Center
01:58PM 30.0256 -82.4558 175° South 167 192 5,500  Level Jacksonville Center
01:59PM 30.0047 -82.4489 164° South 174 200 5,500  Level Jacksonville Center
02:00PM 29.9547 -82.4419 173° South 168 193 5,500  Level Jacksonville Center
02:00PM 29.9589 -82.4394 27° Northeast 174 200 5,500  Level Jacksonville Center
02:01PM 29.9086 -82.4350 176° South 170 196 5,500  Level Jacksonville Center
02:01PM 29.9108 -82.4325 44° Northeast 174 200 5,500  Level Jacksonville Center
02:02PM 29.8647 -82.4256 173° South 179 206 5,500  Level Jacksonville Center
02:03PM 29.8147 -82.4139 169° South 172 198 5,500  Level Jacksonville Center
02:03PM 29.8189 -82.4139 360° North 179 206 5,500  Level Jacksonville Center
02:04PM 29.7708 -82.4019 168° South 179 206 5,500  Level Jacksonville Center
02:05PM 29.7269 -82.3881 165° South 179 206 5,600  Climbing Jacksonville Center
02:05PM 29.7144 -82.3856 170° South 170 196 5,500  Descending Jacksonville Center
02:06PM 29.6706 -82.3667 159° South 170 196 5,600  Climbing Jacksonville Center
02:07PM 29.6350 -82.3550 164° South 179 206 5,600 -240 Level Jacksonville Center
02:07PM 29.6286 -82.3550 180° South 168 193 5,400  Descending Jacksonville Center
02:08PM 29.5931 -82.3433 164° South 173 199 5,600 180 Climbing Jacksonville Center
02:08PM 29.5847 -82.3433 180° South 161 185 5,600 -120 Level Jacksonville Center
02:09PM 29.5367 -82.3292 166° South 163 188 5,500 -60 Descending Jacksonville Center
02:10PM 29.4947 -82.3153 164° South 166 191 5,500  Level Jacksonville Center
02:11PM 29.4447 -82.3011 166° South 167 192 5,500  Level Jacksonville Center
02:12PM 29.3986 -82.2894 168° South 164 189 5,500  Level Jacksonville Center
02:13PM 29.3528 -82.2825 172° South 164 189 5,500  Level Jacksonville Center
02:14PM 29.3067 -82.2686 165° South 169 194 5,500  Level Jacksonville Center
02:15PM 29.2669 -82.2522 160° South 167 192 5,500  Level Jacksonville Center
02:16PM 29.2147 -82.2383 167° South 164 189 5,500  Level Jacksonville Center
02:17PM 29.1708 -82.2292 170° South 163 188 5,500  Level Jacksonville Center
02:18PM 29.1269 -82.2197 169° South 162 186 5,500  Level Jacksonville Center
02:19PM 29.0853 -82.2106 169° South 162 186 5,500  Level Jacksonville Center
02:20PM 29.0289 -82.2017 172° South 161 185 5,500  Level Jacksonville Center
02:21PM 28.9850 -82.1969 175° South 160 184 5,500 -60 Level Jacksonville Center
02:22PM 28.9494 -82.1925 174° South 159 183 5,400  Descending Jacksonville Center
02:23PM 28.9014 -82.1833 171° South 161 185 5,500 60 Climbing Jacksonville Center
02:24PM 28.8594 -82.1742 169° South 160 184 5,600  Climbing Jacksonville Center
02:25PM 28.8114 -82.1603 166° South 159 183 5,600  Level Jacksonville Center
02:44PM 27.9811 -82.0056 172° South 155 178 5,600  Level Miami Center
02:45PM 27.9423 -81.9968 176° South  Level FlightAware Approximate
02:45PM 27.9372 -82.0011 175° South 155 178 5,700  Level Miami Center
02:46PM 27.8947 -81.9932 176° South  Level FlightAware Approximate
02:46PM 27.8936 -81.9967 175° South 155 178 5,700  Level Miami Center
02:47PM 27.8472 -81.9895 176° South  Level FlightAware Approximate
02:47PM 27.8522 -81.9925 175° South 89 102 5,700  Level Miami Center
02:48PM 27.7997 -81.9859 176° South  Level FlightAware Approximate
02:48PM 27.8106 -81.9883 175° South 136 157 5,600  Level Miami Center
02:49PM 27.7523 -81.9812 172° South  Level FlightAware Approximate
02:49PM 27.7711 -81.9842 175° South 156 180 5,600  Level Miami Center
02:50PM 27.7297 -81.9753 169° South 162 186 5,700  Climbing Miami Center
02:51PM 27.6819 -81.9661 170° South 156 180 5,600  Descending Miami Center
02:52PM 27.6386 -81.9547 167° South 163 188 5,700  Climbing Miami Center
02:53PM 27.6011 -81.9486 172° South 156 180 5,600 -60 Descending Miami Center
02:54PM 27.5575 -81.9419 172° South 162 186 5,600  Level Miami Center
02:55PM 27.5161 -81.9353 172° South 162 186 5,600  Level Miami Center
02:56PM 27.4744 -81.9311 175° South 162 186 5,600  Level Miami Center
02:57PM 27.4331 -81.9247 172° South 162 186 5,600  Level Miami Center
02:58PM 27.3894 -81.9181 172° South 162 186 5,600  Level Miami Center
02:59PM 27.3478 -81.9117 172° South 162 186 5,600 -60 Level Miami Center
03:00PM 27.3064 -81.9050 172° South 162 186 5,500 -60 Descending Miami Center
03:01PM 27.2647 -81.8986 172° South 162 186 5,500  Level Miami Center
03:02PM 27.2233 -81.8922 172° South 162 186 5,500  Level Miami Center
03:03PM 27.1819 -81.8856 172° South 162 186 5,500  Level Miami Center
03:04PM 27.1403 -81.8769 170° South 162 186 5,500  Level Miami Center
03:05PM 27.0989 -81.8703 172° South 162 186 5,500 -240 Level Miami Center
03:06PM 27.0553 -81.8661 175° South 162 186 5,100 -360 Descending Miami Center
03:07PM 27.0117 -81.8572 170° South 162 186 4,800 -360 Descending Miami Center
03:08PM 26.9617 -81.8506 173° South 162 186 4,400 -180 Descending Miami Center
03:09PM 26.9203 -81.8442 172° South 162 186 4,500  Climbing Miami Center
03:10PM 26.8786 -81.8375 172° South 157 181 4,500  Level Miami Center
03:11PM 26.8372 -81.8336 175° South 157 181 4,600 60 Climbing Miami Center
03:13PM 26.7719 -81.8288 176° South  Level FlightAware Approximate
03:20PM 26.4455 -81.8046 176° South  Level FlightAware Approximate
03:21PM 26.3989 -81.8011 176° South  Level FlightAware Approximate
03:22PM 26.3520 -81.8000 180° South  Level FlightAware Approximate
03:23PM 26.3056 -81.7936 173° South  Level FlightAware Approximate
03:24PM 26.2592 -81.7870 173° South  Level FlightAware Approximate
03:25PM 26.2130 -81.7793 170° South  Level FlightAware Approximate
03:26PM 26.1670 -81.7701 170° South  Level FlightAware Approximate
03:27PM 26.1500 -81.7667 170° South  Level FlightAware Approximate
03:28PM 26.1524 -81.7756 170° South  Level Estimated